Time;durP1;ratioP1;P1;durP2;ratioP2;P2;SDS_P1;SDS_P2;PMS_P1;PMS_P2;Temp;Humidity;BMP_temperature;BMP_pressure;BME280_temperature;BME280_humidity;BME280_pressure;Samples;Min_cycle;Max_cycle;Signal;HPM_P1;HPM_P2
2023/03/17 00:01:00;;;;;;;;;;;;;;;11.52;45.31;96754.31;5089813;27;19915;-76
2023/03/17 00:03:26;;;;;;;;;;;;;;;11.52;45.68;96754.31;5110516;27;20002;-75
2023/03/17 00:05:52;;;;;;;;;;;;;;;11.57;46.18;96757.69;5113518;27;19915;-75
2023/03/17 00:08:47;;;;;;;;;;;;;;;11.57;45.70;96751.69;5104206;27;20394;-75
2023/03/17 00:11:13;;;;;;;;;;;;;;;11.59;45.49;96744.41;5119712;27;20314;-74
2023/03/17 00:13:38;;;;;;;;;;;;;;;11.62;44.94;96759.53;5113350;27;20505;-74
2023/03/17 00:16:04;;;;;;;;;;;;;;;11.69;44.88;96752.22;5113934;27;20222;-76
2023/03/17 00:18:30;;;;;;;;;;;;;;;11.83;44.59;96754.31;5096043;27;19915;-76
2023/03/17 00:20:56;;;;;;;;;;;;;;;12.02;44.29;96754.56;5112320;27;20297;-74
2023/03/17 00:23:22;;;;;;;;;;;;;;;12.15;44.31;96751.41;5112451;27;19915;-74
2023/03/17 00:25:47;;;;;;;;;;;;;;;12.23;43.93;96748.25;5107205;27;20362;-76
2023/03/17 00:28:22;;;;;;;;;;;;;;;12.34;43.22;96751.63;5101546;27;19972;-77
2023/03/17 00:30:48;;;;;;;;;;;;;;;12.50;43.01;96747.91;5120273;27;19966;-75
2023/03/17 00:33:15;;;;;;;;;;;;;;;12.45;43.66;96750.53;5104241;27;19919;-74
2023/03/17 00:35:40;;;;;;;;;;;;;;;12.50;42.68;96747.13;5108047;27;19915;-74
2023/03/17 00:38:06;;;;;;;;;;;;;;;12.60;42.37;96752.31;5121988;27;19943;-75
2023/03/17 00:40:31;;;;;;;;;;;;;;;12.61;42.75;96740.03;5092460;27;19922;-76
2023/03/17 00:42:57;;;;;;;;;;;;;;;12.47;43.20;96739.81;5126895;27;20230;-75
2023/03/17 00:45:23;;;;;;;;;;;;;;;12.42;43.07;96745.06;5079411;27;19942;-74
2023/03/17 00:47:48;;;;;;;;;;;;;;;12.37;43.90;96743.25;5096921;27;19919;-75
2023/03/17 00:50:15;;;;;;;;;;;;;;;12.38;43.67;96751.88;5105640;27;19976;-75
2023/03/17 00:52:41;;;;;;;;;;;;;;;12.37;43.06;96745.84;5101592;27;19915;-75
2023/03/17 00:55:07;;;;;;;;;;;;;;;12.27;43.28;96744.06;5121582;27;19926;-75
2023/03/17 00:57:34;;;;;;;;;;;;;;;12.27;42.73;96738.84;5097556;27;20027;-74
2023/03/17 00:59:59;;;;;;;;;;;;;;;12.33;42.92;96731.78;5114268;27;19915;-75
2023/03/17 01:02:24;;;;;;;;;;;;;;;12.25;42.68;96725.28;5099394;27;19993;-74
2023/03/17 01:04:50;;;;;;;;;;;;;;;12.27;42.73;96717.16;5111368;27;19951;-74
2023/03/17 01:07:15;;;;;;;;;;;;;;;12.24;43.02;96707.28;5111355;27;19915;-74
2023/03/17 01:09:40;;;;;;;;;;;;;;;12.31;42.76;96708.53;5095585;27;19915;-75
2023/03/17 01:12:08;;;;;;;;;;;;;;;12.35;42.79;96712.22;5120295;27;19915;-74
2023/03/17 01:14:33;;;;;;;;;;;;;;;12.45;42.40;96710.59;5092427;27;19950;-73
2023/03/17 01:16:58;;;;;;;;;;;;;;;12.47;43.01;96701.44;5105896;27;19914;-75
2023/03/17 01:19:23;;;;;;;;;;;;;;;12.48;41.72;96702.22;5100725;27;19915;-74
2023/03/17 01:21:49;;;;;;;;;;;;;;;12.52;42.04;96704.03;5117386;27;19976;-74
2023/03/17 01:24:14;;;;;;;;;;;;;;;12.47;42.05;96700.66;5118965;27;20282;-75
2023/03/17 01:26:40;;;;;;;;;;;;;;;12.66;41.26;96704.25;5108834;27;19915;-74
2023/03/17 01:29:06;;;;;;;;;;;;;;;12.65;41.68;96707.13;5106971;27;19916;-74
2023/03/17 01:31:32;;;;;;;;;;;;;;;12.60;42.00;96705.31;5080392;27;19919;-75
2023/03/17 01:33:57;;;;;;;;;;;;;;;12.61;42.11;96698.25;5115059;27;20390;-74
2023/03/17 01:36:22;;;;;;;;;;;;;;;12.50;42.46;96697.53;5105259;27;20400;-75
2023/03/17 01:38:49;;;;;;;;;;;;;;;12.35;43.15;96698.34;5097533;27;19922;-75
2023/03/17 01:41:15;;;;;;;;;;;;;;;12.43;42.63;96704.88;5102593;27;20409;-74
2023/03/17 01:43:41;;;;;;;;;;;;;;;12.39;42.39;96699.41;5115175;27;20432;-75
2023/03/17 01:46:10;;;;;;;;;;;;;;;12.35;42.34;96693.13;5110783;27;19919;-74
2023/03/17 01:48:37;;;;;;;;;;;;;;;12.31;42.52;96698.09;5112925;27;20018;-75
2023/03/17 01:51:03;;;;;;;;;;;;;;;12.27;42.31;96697.09;5121411;27;20334;-74
2023/03/17 01:53:28;;;;;;;;;;;;;;;12.18;42.62;96686.41;5113727;27;19970;-74
2023/03/17 01:55:53;;;;;;;;;;;;;;;12.17;42.84;96689.28;5082961;27;20319;-75
2023/03/17 01:58:19;;;;;;;;;;;;;;;12.16;43.22;96688.50;5109945;27;19926;-74
2023/03/17 02:00:45;;;;;;;;;;;;;;;12.03;42.98;96691.69;5117470;27;19918;-75
2023/03/17 02:03:10;;;;;;;;;;;;;;;12.06;41.97;96688.53;5082872;22;19936;-78
2023/03/17 02:05:35;;;;;;;;;;;;;;;12.01;41.82;96680.72;5006403;28;20367;-79
2023/03/17 02:08:01;;;;;;;;;;;;;;;12.03;41.92;96676.03;5043724;28;19963;-79
2023/03/17 02:10:27;;;;;;;;;;;;;;;12.03;41.74;96664.78;5029408;28;19916;-79
2023/03/17 02:12:54;;;;;;;;;;;;;;;12.06;41.42;96664.25;5022771;28;20510;-79
2023/03/17 02:15:20;;;;;;;;;;;;;;;12.03;41.26;96662.97;5023243;28;20669;-79
2023/03/17 02:17:45;;;;;;;;;;;;;;;12.04;41.07;96661.16;5009008;28;19936;-79
2023/03/17 02:20:12;;;;;;;;;;;;;;;12.03;41.00;96660.38;5023187;28;19924;-80
2023/03/17 02:22:37;;;;;;;;;;;;;;;12.08;41.03;96651.72;5039267;28;19995;-80
2023/03/17 02:25:03;;;;;;;;;;;;;;;12.07;41.39;96661.41;5046166;28;19913;-80
2023/03/17 02:27:29;;;;;;;;;;;;;;;12.05;40.90;96660.88;5047893;28;20330;-80
2023/03/17 02:29:55;;;;;;;;;;;;;;;12.05;41.09;96666.09;5044682;28;19917;-79
2023/03/17 02:32:20;;;;;;;;;;;;;;;12.08;41.10;96662.16;5047683;28;19921;-80
2023/03/17 02:34:46;;;;;;;;;;;;;;;12.01;41.35;96657.22;5027602;28;20023;-79
2023/03/17 02:37:12;;;;;;;;;;;;;;;11.99;41.41;96654.91;5030728;28;19924;-79
2023/03/17 02:39:37;;;;;;;;;;;;;;;12.00;40.92;96653.06;5020114;28;20414;-79
2023/03/17 02:42:03;;;;;;;;;;;;;;;11.94;40.81;96654.13;5048677;28;19916;-79
2023/03/17 02:44:28;;;;;;;;;;;;;;;11.92;41.61;96666.66;5026493;28;20364;-79
2023/03/17 02:46:53;;;;;;;;;;;;;;;11.89;42.35;96657.50;5009031;28;20007;-79
2023/03/17 02:49:19;;;;;;;;;;;;;;;11.86;42.11;96665.06;5024822;28;19921;-80
2023/03/17 02:51:44;;;;;;;;;;;;;;;11.84;42.16;96667.97;5029466;28;19917;-80
2023/03/17 02:54:10;;;;;;;;;;;;;;;11.72;42.48;96657.81;5028620;28;19921;-79
2023/03/17 02:56:35;;;;;;;;;;;;;;;11.65;42.21;96652.06;5013834;28;20376;-79
2023/03/17 02:59:00;;;;;;;;;;;;;;;11.71;41.95;96655.47;5045217;28;19924;-79
2023/03/17 03:01:26;;;;;;;;;;;;;;;11.66;42.40;96655.47;5027285;28;19972;-79
2023/03/17 03:03:51;;;;;;;;;;;;;;;11.63;41.91;96656.78;5052273;28;19917;-80
2023/03/17 03:06:17;;;;;;;;;;;;;;;11.75;41.24;96657.25;5050099;28;19917;-80
2023/03/17 03:08:42;;;;;;;;;;;;;;;11.97;40.64;96661.44;5059231;28;19921;-80
2023/03/17 03:11:09;;;;;;;;;;;;;;;11.90;40.85;96666.88;5066184;28;19966;-79
2023/03/17 03:13:35;;;;;;;;;;;;;;;11.71;41.72;96658.84;5066300;28;19924;-80
2023/03/17 03:16:00;;;;;;;;;;;;;;;11.66;41.71;96656.25;5052221;28;19967;-79
2023/03/17 03:18:26;;;;;;;;;;;;;;;11.65;41.22;96656.50;5047511;28;19916;-79
2023/03/17 03:20:51;;;;;;;;;;;;;;;11.60;41.39;96663.31;5067603;28;19917;-79
2023/03/17 03:23:16;;;;;;;;;;;;;;;11.56;41.11;96661.47;5053489;28;19964;-79
2023/03/17 03:25:42;;;;;;;;;;;;;;;11.51;41.29;96656.28;5036167;28;20350;-79
2023/03/17 03:28:07;;;;;;;;;;;;;;;11.52;40.96;96655.25;5052470;28;20470;-79
2023/03/17 03:30:33;;;;;;;;;;;;;;;11.63;40.97;96654.16;5057580;28;19917;-79
2023/03/17 03:32:58;;;;;;;;;;;;;;;11.61;41.03;96659.63;5081622;28;19920;-79
2023/03/17 03:35:23;;;;;;;;;;;;;;;11.52;41.35;96660.44;5045615;28;19924;-79
2023/03/17 03:37:49;;;;;;;;;;;;;;;11.50;40.95;96659.91;5047973;28;20015;-79
2023/03/17 03:40:14;;;;;;;;;;;;;;;11.50;41.30;96657.31;5047836;28;19959;-79
2023/03/17 03:42:40;;;;;;;;;;;;;;;11.42;41.77;96656.03;5031623;28;19916;-77
2023/03/17 03:45:06;;;;;;;;;;;;;;;11.39;41.91;96656.53;5047757;28;20402;-79
2023/03/17 03:47:31;;;;;;;;;;;;;;;11.31;41.17;96665.69;5045837;28;20390;-80
2023/03/17 03:49:57;;;;;;;;;;;;;;;11.29;40.84;96659.91;5064904;28;20588;-78
2023/03/17 03:52:22;;;;;;;;;;;;;;;11.28;41.28;96650.56;5049274;28;19925;-80
2023/03/17 03:54:47;;;;;;;;;;;;;;;11.30;41.16;96651.06;5070193;28;19932;-80
2023/03/17 03:57:12;;;;;;;;;;;;;;;11.37;41.38;96654.19;5072157;28;19923;-80
2023/03/17 03:59:38;;;;;;;;;;;;;;;11.33;41.70;96658.38;5049119;28;20379;-79
2023/03/17 04:02:03;;;;;;;;;;;;;;;11.50;41.37;96665.13;5034358;28;19929;-80
2023/03/17 04:04:28;;;;;;;;;;;;;;;11.53;41.27;96669.81;5069428;28;19948;-80
2023/03/17 04:06:54;;;;;;;;;;;;;;;11.40;41.58;96669.31;5053332;28;19917;-79
2023/03/17 04:09:19;;;;;;;;;;;;;;;11.24;42.35;96670.34;5069769;28;19927;-80
2023/03/17 04:11:44;;;;;;;;;;;;;;;11.13;42.18;96666.97;5033215;28;19912;-79
2023/03/17 04:14:10;;;;;;;;;;;;;;;11.12;42.42;96660.19;5051392;28;19920;-80
2023/03/17 04:16:35;;;;;;;;;;;;;;;11.12;42.55;96654.19;5037636;28;19921;-79
2023/03/17 04:19:00;;;;;;;;;;;;;;;11.09;42.60;96663.31;5066144;28;19963;-79
2023/03/17 04:21:26;;;;;;;;;;;;;;;11.19;42.58;96649.50;5046673;28;19916;-79
2023/03/17 04:23:51;;;;;;;;;;;;;;;11.04;43.07;96647.69;5034865;28;19932;-80
2023/03/17 04:26:21;;;;;;;;;;;;;;;10.95;43.05;96652.63;5058840;28;19924;-80
2023/03/17 04:28:47;;;;;;;;;;;;;;;10.87;43.52;96656.53;5048653;28;19913;-80
2023/03/17 04:31:12;;;;;;;;;;;;;;;10.78;44.21;96662.47;5066636;28;19917;-80
2023/03/17 04:33:38;;;;;;;;;;;;;;;10.70;43.80;96665.63;5083124;28;19925;-79
2023/03/17 04:36:03;;;;;;;;;;;;;;;10.63;44.19;96669.22;5043849;28;20004;-80
2023/03/17 04:38:28;;;;;;;;;;;;;;;10.61;43.81;96665.34;5063822;28;19917;-80
2023/03/17 04:40:54;;;;;;;;;;;;;;;10.57;43.64;96661.66;5043118;28;19921;-79
2023/03/17 04:43:19;;;;;;;;;;;;;;;10.63;43.79;96666.63;5065866;28;19927;-80
2023/03/17 04:45:44;;;;;;;;;;;;;;;10.67;44.00;96664.28;5081201;28;19956;-80
2023/03/17 04:48:10;;;;;;;;;;;;;;;10.67;44.55;96672.88;5051910;28;20302;-80
2023/03/17 04:50:35;;;;;;;;;;;;;;;10.62;44.45;96672.09;5065226;28;20227;-79
2023/03/17 04:53:00;;;;;;;;;;;;;;;10.66;44.13;96673.16;5050610;28;19967;-79
2023/03/17 04:55:26;;;;;;;;;;;;;;;10.65;44.24;96674.97;5067804;28;19975;-80
2023/03/17 04:57:51;;;;;;;;;;;;;;;10.73;44.50;96675.50;5068036;28;19916;-80
2023/03/17 05:00:17;;;;;;;;;;;;;;;10.63;44.99;96674.44;5051356;28;20011;-80
2023/03/17 05:02:43;;;;;;;;;;;;;;;10.71;45.00;96678.38;5068707;28;19927;-80
2023/03/17 05:05:08;;;;;;;;;;;;;;;10.64;44.92;96677.81;5045197;28;19916;-80
2023/03/17 05:07:34;;;;;;;;;;;;;;;10.60;44.78;96677.56;5063787;28;19920;-80
2023/03/17 05:09:59;;;;;;;;;;;;;;;10.60;44.81;96679.38;5042785;28;19999;-80
2023/03/17 05:12:24;;;;;;;;;;;;;;;10.43;45.28;96680.34;5069031;28;20279;-80
2023/03/17 05:14:50;;;;;;;;;;;;;;;10.50;44.84;96682.72;5044171;28;19928;-79
2023/03/17 05:17:15;;;;;;;;;;;;;;;10.48;45.24;96682.97;5058776;28;20059;-79
2023/03/17 05:19:41;;;;;;;;;;;;;;;10.32;45.43;96691.78;5049013;28;19923;-80
2023/03/17 05:22:06;;;;;;;;;;;;;;;10.18;45.91;96695.84;5039369;28;19928;-79
2023/03/17 05:24:32;;;;;;;;;;;;;;;10.10;46.14;96695.28;5029780;28;19940;-79
2023/03/17 05:26:57;;;;;;;;;;;;;;;10.02;46.31;96682.75;5049780;28;19971;-79
2023/03/17 05:29:22;;;;;;;;;;;;;;;9.97;46.14;96681.94;5059964;28;19917;-79
2023/03/17 05:31:47;;;;;;;;;;;;;;;10.05;46.01;96687.44;5060955;28;19916;-79
2023/03/17 05:34:14;;;;;;;;;;;;;;;10.07;46.48;96692.41;5064109;28;19927;-79
2023/03/17 05:36:39;;;;;;;;;;;;;;;9.97;47.02;96690.53;5063878;28;19920;-79
2023/03/17 05:39:04;;;;;;;;;;;;;;;9.87;47.48;96686.06;5036236;28;19923;-79
2023/03/17 05:41:30;;;;;;;;;;;;;;;9.77;47.26;96678.22;5031117;28;20292;-79
2023/03/17 05:43:55;;;;;;;;;;;;;;;9.72;47.00;96673.75;5058310;28;20400;-79
2023/03/17 05:46:21;;;;;;;;;;;;;;;9.79;46.68;96677.97;5066492;28;20471;-79
2023/03/17 05:48:46;;;;;;;;;;;;;;;9.81;46.51;96671.47;5068926;28;19917;-79
2023/03/17 05:51:11;;;;;;;;;;;;;;;9.86;46.44;96668.91;5040618;28;19963;-79
2023/03/17 05:53:37;;;;;;;;;;;;;;;9.86;47.59;96668.13;5057484;28;19921;-80
2023/03/17 05:56:02;;;;;;;;;;;;;;;9.77;47.01;96673.00;5039263;28;19939;-79
2023/03/17 05:58:28;;;;;;;;;;;;;;;9.99;46.41;96672.06;5067762;28;20303;-79
2023/03/17 06:00:53;;;;;;;;;;;;;;;10.10;46.81;96669.28;5067248;28;19943;-79
2023/03/17 06:03:18;;;;;;;;;;;;;;;10.10;47.01;96673.69;5065760;28;19921;-80
2023/03/17 06:05:43;;;;;;;;;;;;;;;10.22;46.41;96670.91;5060671;28;20394;-79
2023/03/17 06:08:09;;;;;;;;;;;;;;;10.24;46.20;96676.63;5066546;28;19922;-79
2023/03/17 06:10:35;;;;;;;;;;;;;;;10.18;46.64;96685.44;5029022;28;19955;-79
2023/03/17 06:13:00;;;;;;;;;;;;;;;10.18;46.92;96680.22;5048557;28;19916;-79
2023/03/17 06:15:25;;;;;;;;;;;;;;;10.16;46.97;96687.50;5049354;28;19966;-79
2023/03/17 06:17:51;;;;;;;;;;;;;;;10.16;47.16;96682.31;5047924;28;19954;-79
2023/03/17 06:20:16;;;;;;;;;;;;;;;10.24;47.59;96682.59;5033007;28;19917;-79
2023/03/17 06:22:42;;;;;;;;;;;;;;;10.33;46.96;96682.16;5045048;28;19916;-79
2023/03/17 06:25:09;;;;;;;;;;;;;;;10.36;46.65;96686.84;5061600;28;19916;-79
2023/03/17 06:27:34;;;;;;;;;;;;;;;10.61;46.58;96691.38;5033486;28;20411;-79
2023/03/17 06:29:59;;;;;;;;;;;;;;;10.83;45.31;96691.13;5051789;28;20003;-79
2023/03/17 06:32:25;;;;;;;;;;;;;;;10.98;45.37;96693.00;5038556;28;19921;-79
2023/03/17 06:34:52;;;;;;;;;;;;;;;11.09;45.42;96688.56;5076780;28;19927;-79
2023/03/17 06:37:18;;;;;;;;;;;;;;;11.42;44.54;96687.31;5049118;28;20027;-79
2023/03/17 06:39:44;;;;;;;;;;;;;;;11.59;43.10;96687.03;5061760;28;20011;-79
2023/03/17 06:42:09;;;;;;;;;;;;;;;11.96;42.53;96685.94;5045896;28;20003;-79
2023/03/17 06:44:36;;;;;;;;;;;;;;;12.41;41.56;96686.06;5064454;28;19927;-79
2023/03/17 06:47:01;;;;;;;;;;;;;;;12.64;41.70;96685.44;5045492;28;19935;-79
2023/03/17 06:49:26;;;;;;;;;;;;;;;12.96;41.36;96683.44;5031316;28;19916;-80
2023/03/17 06:51:52;;;;;;;;;;;;;;;13.01;40.39;96681.56;5051659;28;19917;-79
2023/03/17 06:54:17;;;;;;;;;;;;;;;13.18;40.51;96683.00;5070900;28;19924;-79
2023/03/17 06:56:43;;;;;;;;;;;;;;;13.24;40.65;96685.31;5035814;28;19916;-79
2023/03/17 06:59:10;;;;;;;;;;;;;;;13.29;39.61;96681.88;5069636;28;20331;-79
2023/03/17 07:01:37;;;;;;;;;;;;;;;13.46;40.10;96678.91;5068610;28;19920;-79
2023/03/17 07:04:02;;;;;;;;;;;;;;;13.56;39.34;96678.03;5051143;28;19916;-79
2023/03/17 07:06:28;;;;;;;;;;;;;;;13.62;39.96;96680.34;5050371;28;19922;-79
2023/03/17 07:08:53;;;;;;;;;;;;;;;13.67;39.17;96680.28;5070237;28;19967;-79
2023/03/17 07:11:18;;;;;;;;;;;;;;;13.68;39.27;96688.91;5053184;28;20664;-79
2023/03/17 07:13:44;;;;;;;;;;;;;;;13.60;39.34;96687.66;5032277;28;19975;-79
2023/03/17 07:16:10;;;;;;;;;;;;;;;13.76;39.00;96685.69;5048187;28;19916;-79
2023/03/17 07:18:35;;;;;;;;;;;;;;;13.81;39.44;96690.88;5045252;28;19924;-79
2023/03/17 07:21:01;;;;;;;;;;;;;;;13.96;39.72;96692.56;5032115;28;19916;-79
2023/03/17 07:23:26;;;;;;;;;;;;;;;13.82;39.21;96702.13;5046499;28;20016;-79
2023/03/17 07:25:51;;;;;;;;;;;;;;;13.98;39.85;96700.94;5029273;28;19928;-79
2023/03/17 07:28:18;;;;;;;;;;;;;;;14.36;38.36;96698.41;5070658;28;20364;-79
2023/03/17 07:30:45;;;;;;;;;;;;;;;14.34;38.87;96702.34;5059780;28;19921;-79
2023/03/17 07:33:15;;;;;;;;;;;;;;;14.36;37.94;96703.66;5052239;28;19923;-80
2023/03/17 07:35:41;;;;;;;;;;;;;;;14.31;37.76;96702.91;5030957;28;19921;-79
2023/03/17 07:38:06;;;;;;;;;;;;;;;14.66;37.63;96701.75;5025854;28;19926;-78
2023/03/17 07:40:33;;;;;;;;;;;;;;;15.15;37.14;96711.03;5031075;28;19918;-80
2023/03/17 07:42:58;;;;;;;;;;;;;;;15.46;37.62;96699.31;5030049;28;20383;-79
2023/03/17 07:45:23;;;;;;;;;;;;;;;15.28;36.17;96698.25;5046481;28;19946;-79
2023/03/17 07:47:49;;;;;;;;;;;;;;;15.76;36.47;96697.25;5065527;28;19959;-79
2023/03/17 07:50:14;;;;;;;;;;;;;;;15.64;35.90;96700.31;5033806;28;19928;-80
2023/03/17 07:52:41;;;;;;;;;;;;;;;16.19;36.40;96695.13;5070077;28;19916;-79
2023/03/17 07:55:09;;;;;;;;;;;;;;;16.24;35.44;96695.03;5053986;28;20046;-79
2023/03/17 07:57:35;;;;;;;;;;;;;;;15.96;36.01;96690.88;5048984;28;19920;-79
2023/03/17 08:00:00;;;;;;;;;;;;;;;16.10;36.00;96694.28;5065621;28;20394;-78
2023/03/17 08:02:25;;;;;;;;;;;;;;;16.24;35.28;96689.78;5051256;28;19921;-79
2023/03/17 08:04:52;;;;;;;;;;;;;;;16.37;35.72;96696.13;5062349;28;20019;-80
2023/03/17 08:07:18;;;;;;;;;;;;;;;16.55;34.97;96701.53;5053437;28;20198;-79
2023/03/17 08:09:43;;;;;;;;;;;;;;;16.31;35.14;96692.03;5060520;28;20458;-79
2023/03/17 08:12:09;;;;;;;;;;;;;;;16.47;34.24;96701.16;5065675;28;20419;-79
2023/03/17 08:14:34;;;;;;;;;;;;;;;16.87;34.68;96702.50;5045616;28;19924;-79
2023/03/17 08:16:59;;;;;;;;;;;;;;;16.71;33.75;96709.88;5051152;28;19916;-78
2023/03/17 08:19:25;;;;;;;;;;;;;;;16.22;35.81;96704.28;5050490;28;19959;-79
2023/03/17 08:21:50;;;;;;;;;;;;;;;16.70;34.72;96698.59;5065812;28;20247;-79
2023/03/17 08:24:15;;;;;;;;;;;;;;;16.75;34.91;96698.50;5032930;28;20335;-80
2023/03/17 08:26:41;;;;;;;;;;;;;;;16.84;34.61;96688.06;5042778;28;19991;-79
2023/03/17 08:29:06;;;;;;;;;;;;;;;16.99;33.48;96690.38;5060524;28;19920;-79
2023/03/17 08:31:32;;;;;;;;;;;;;;;17.33;33.09;96691.69;5069043;28;20015;-79
2023/03/17 08:33:58;;;;;;;;;;;;;;;17.85;32.68;96687.81;5025610;28;19925;-76
2023/03/17 08:36:23;;;;;;;;;;;;;;;17.86;32.94;96684.09;5048135;28;19952;-76
2023/03/17 08:38:49;;;;;;;;;;;;;;;17.83;33.54;96684.72;5047109;28;20501;-77
2023/03/17 08:41:15;;;;;;;;;;;;;;;18.07;32.95;96685.13;5042126;28;19920;-77
2023/03/17 08:43:41;;;;;;;;;;;;;;;17.79;32.76;96687.94;5036292;28;20394;-81
2023/03/17 08:46:08;;;;;;;;;;;;;;;18.15;32.94;96665.19;5052982;28;19974;-79
2023/03/17 08:48:34;;;;;;;;;;;;;;;18.47;33.25;96671.94;5035149;28;19921;-74
2023/03/17 08:50:59;;;;;;;;;;;;;;;18.36;31.11;96660.09;5067727;28;19974;-73
2023/03/17 08:53:26;;;;;;;;;;;;;;;17.98;31.42;96652.72;5030877;28;20393;-75
2023/03/17 08:55:53;;;;;;;;;;;;;;;18.13;31.77;96649.69;5048054;28;19916;-73
2023/03/17 08:58:19;;;;;;;;;;;;;;;18.71;31.05;96644.31;5040480;28;19936;-73
2023/03/17 09:00:46;;;;;;;;;;;;;;;18.48;31.94;96636.56;5041629;28;20521;-74
2023/03/17 09:03:11;;;;;;;;;;;;;;;18.31;31.01;96641.81;5049459;28;19920;-74
2023/03/17 09:05:36;;;;;;;;;;;;;;;18.69;32.10;96644.63;5067700;28;20403;-72
2023/03/17 09:08:02;;;;;;;;;;;;;;;18.95;31.87;96638.59;5022980;28;20563;-73
2023/03/17 09:10:27;;;;;;;;;;;;;;;18.98;31.56;96642.50;5068915;28;20402;-74
2023/03/17 09:12:53;;;;;;;;;;;;;;;19.34;30.89;96644.00;5031631;28;19928;-74
2023/03/17 09:15:18;;;;;;;;;;;;;;;19.20;30.41;96636.28;5057491;28;19920;-73
2023/03/17 09:17:43;;;;;;;;;;;;;;;18.64;30.97;96638.75;5041592;28;19925;-74
2023/03/17 09:20:10;;;;;;;;;;;;;;;18.75;31.17;96647.91;5046695;28;20310;-75
2023/03/17 09:22:35;;;;;;;;;;;;;;;18.96;31.13;96650.72;5064120;28;19943;-75
2023/03/17 09:25:01;;;;;;;;;;;;;;;18.87;30.54;96655.25;5049563;28;19924;-74
2023/03/17 09:27:26;;;;;;;;;;;;;;;18.76;31.23;96649.44;5035634;28;19917;-73
2023/03/17 09:29:51;;;;;;;;;;;;;;;19.02;29.86;96646.84;5052025;28;20065;-73
2023/03/17 09:32:16;;;;;;;;;;;;;;;18.86;30.56;96646.53;5034325;28;19921;-75
2023/03/17 09:34:42;;;;;;;;;;;;;;;18.94;31.66;96647.63;5041900;28;20320;-74
2023/03/17 09:37:08;;;;;;;;;;;;;;;18.87;31.61;96645.44;5051638;28;19974;-74
2023/03/17 09:39:33;;;;;;;;;;;;;;;18.84;29.58;96647.94;5049258;28;19963;-76
2023/03/17 09:41:59;;;;;;;;;;;;;;;18.75;30.10;96647.13;5035181;28;20311;-74
2023/03/17 09:44:27;;;;;;;;;;;;;;;18.45;31.49;96652.97;5059919;28;19920;-73
2023/03/17 09:46:59;;;;;;;;;;;;;;;18.62;29.96;96648.81;5068640;28;19920;-73
2023/03/17 09:49:37;;;;;;;;;;;;;;;19.06;31.63;96655.69;5035318;28;19924;-74
2023/03/17 09:52:02;;;;;;;;;;;;;;;19.23;30.43;96657.53;5046422;28;19917;-74
2023/03/17 09:54:34;;;;;;;;;;;;;;;19.09;31.85;96660.34;5025226;28;19986;-74
2023/03/17 09:57:05;;;;;;;;;;;;;;;19.32;30.95;96649.59;5066829;28;19967;-75
2023/03/17 09:59:33;;;;;;;;;;;;;;;19.30;30.11;96645.72;5034494;28;19917;-75
2023/03/17 10:01:59;;;;;;;;;;;;;;;19.19;31.69;96651.34;5067810;28;20380;-74
2023/03/17 10:04:24;;;;;;;;;;;;;;;19.01;31.53;96660.34;5048308;28;19927;-74
2023/03/17 10:06:50;;;;;;;;;;;;;;;18.80;31.79;96650.38;5031514;28;19921;-73
2023/03/17 10:09:16;;;;;;;;;;;;;;;19.16;29.85;96659.88;5064366;28;20429;-74
2023/03/17 10:11:42;;;;;;;;;;;;;;;19.50;30.94;96654.81;5066773;28;19924;-75
2023/03/17 10:14:26;;;;;;;;;;;;;;;19.10;31.07;96658.47;5046219;28;19964;-74
2023/03/17 10:16:53;;;;;;;;;;;;;;;19.17;31.31;96650.84;5067310;28;19916;-73
2023/03/17 10:19:37;;;;;;;;;;;;;;;19.23;30.60;96654.88;5066132;28;19924;-74
2023/03/17 10:22:24;;;;;;;;;;;;;;;19.07;30.59;96645.88;5063843;28;19916;-74
2023/03/17 10:24:53;;;;;;;;;;;;;;;19.06;30.97;96649.63;5030030;28;19928;-74
2023/03/17 10:27:18;;;;;;;;;;;;;;;18.48;30.96;96641.81;5033357;28;19920;-73
2023/03/17 10:29:44;;;;;;;;;;;;;;;18.69;31.41;96633.31;5067382;28;19920;-73
2023/03/17 10:32:11;;;;;;;;;;;;;;;18.31;31.61;96639.94;5062842;28;20265;-74
2023/03/17 10:34:38;;;;;;;;;;;;;;;18.63;32.32;96637.97;5044356;28;19933;-74
2023/03/17 10:37:07;;;;;;;;;;;;;;;18.75;31.79;96641.84;5029856;28;21382;-73
2023/03/17 10:39:40;;;;;;;;;;;;;;;19.07;31.76;96635.34;5075225;28;19968;-74
2023/03/17 10:42:18;;;;;;;;;;;;;;;19.09;31.10;96635.81;5047790;28;20228;-73
2023/03/17 10:44:47;;;;;;;;;;;;;;;19.07;31.07;96636.13;5049162;28;19916;-74
2023/03/17 10:47:28;;;;;;;;;;;;;;;19.15;31.09;96642.47;5050452;28;19917;-74
2023/03/17 10:49:54;;;;;;;;;;;;;;;19.13;30.72;96639.38;5066198;28;20620;-73
2023/03/17 10:52:21;;;;;;;;;;;;;;;19.41;30.98;96641.66;5049334;28;20319;-74
2023/03/17 10:54:48;;;;;;;;;;;;;;;19.39;30.85;96638.56;5049351;28;19920;-74
2023/03/17 10:57:14;;;;;;;;;;;;;;;19.38;31.40;96637.00;5030529;28;19943;-74
2023/03/17 10:59:43;;;;;;;;;;;;;;;19.18;31.72;96625.25;5026834;28;19920;-74
2023/03/17 11:02:24;;;;;;;;;;;;;;;19.09;31.03;96638.47;5064704;28;19920;-72
2023/03/17 11:04:51;;;;;;;;;;;;;;;19.39;30.05;96630.63;5060885;28;19925;-73
2023/03/17 11:07:18;;;;;;;;;;;;;;;19.23;30.15;96625.84;5047501;28;19917;-73
2023/03/17 11:09:47;;;;;;;;;;;;;;;19.23;30.66;96623.22;5075372;28;20035;-73
2023/03/17 11:12:33;;;;;;;;;;;;;;;19.40;30.08;96621.63;5053182;28;19925;-73
2023/03/17 11:14:59;;;;;;;;;;;;;;;19.24;30.78;96616.84;5058527;28;19920;-74
2023/03/17 11:17:38;;;;;;;;;;;;;;;19.44;32.57;96614.63;5048946;28;19928;-74
2023/03/17 11:20:22;;;;;;;;;;;;;;;19.54;30.45;96621.44;5065230;28;19965;-74
2023/03/17 11:22:51;;;;;;;;;;;;;;;19.83;30.33;96610.16;5065916;28;19917;-74
2023/03/17 11:25:19;;;;;;;;;;;;;;;19.83;31.11;96618.09;5048810;28;19983;-74
2023/03/17 11:27:51;;;;;;;;;;;;;;;19.68;30.76;96600.88;5031348;28;19935;-74
2023/03/17 11:30:16;;;;;;;;;;;;;;;19.73;29.99;96598.06;5067011;28;19917;-73
2023/03/17 11:32:55;;;;;;;;;;;;;;;19.70;29.84;96597.91;5048201;28;20082;-74
2023/03/17 11:35:28;;;;;;;;;;;;;;;19.80;30.78;96608.16;5065005;28;19924;-75
2023/03/17 11:37:56;;;;;;;;;;;;;;;19.63;30.11;96598.41;5033580;28;20043;-75
2023/03/17 11:40:27;;;;;;;;;;;;;;;19.65;31.25;96602.28;5068755;28;19962;-74
2023/03/17 11:43:31;;;;;;;;;;;;;;;19.62;30.66;96587.06;5053515;28;19916;-74
2023/03/17 11:46:18;;;;;;;;;;;;;;;19.67;30.94;96588.75;5028018;28;19917;-75
2023/03/17 11:49:01;;;;;;;;;;;;;;;19.67;31.66;96588.75;5028476;28;19998;-74
2023/03/17 11:51:53;;;;;;;;;;;;;;;19.62;31.14;96587.06;5052806;28;19925;-73
2023/03/17 11:54:25;;;;;;;;;;;;;;;19.71;31.95;96596.84;5051658;28;19985;-74
2023/03/17 11:56:51;;;;;;;;;;;;;;;19.80;31.38;96601.00;5037564;28;20208;-74
2023/03/17 11:59:19;;;;;;;;;;;;;;;19.92;29.61;96588.97;5052900;28;20379;-74
2023/03/17 12:01:50;;;;;;;;;;;;;;;19.77;31.19;96592.94;5047863;28;19921;-73
2023/03/17 12:04:24;;;;;;;;;;;;;;;19.76;30.48;96584.25;5068575;28;20390;-73
2023/03/17 12:06:56;;;;;;;;;;;;;;;19.81;31.07;96578.00;5068658;28;19927;-74
2023/03/17 12:09:32;;;;;;;;;;;;;;;19.92;31.65;96578.41;5035474;28;19924;-74
2023/03/17 12:11:57;;;;;;;;;;;;;;;19.93;30.36;96575.47;5068819;28;19923;-75
2023/03/17 12:14:31;;;;;;;;;;;;;;;20.02;31.48;96575.41;5075656;28;19920;-74
2023/03/17 12:17:05;;;;;;;;;;;;;;;20.16;30.78;96573.28;5053768;28;19967;-74
2023/03/17 12:19:49;;;;;;;;;;;;;;;20.26;31.62;96572.13;5069065;28;19916;-74
2023/03/17 12:22:29;;;;;;;;;;;;;;;20.30;31.45;96574.91;5052999;28;19917;-74
2023/03/17 12:25:07;;;;;;;;;;;;;;;20.31;32.29;96563.25;5051806;28;19920;-74
2023/03/17 12:27:34;;;;;;;;;;;;;;;20.57;30.81;96560.41;5070965;28;19920;-73
2023/03/17 12:30:26;;;;;;;;;;;;;;;20.62;31.35;96552.28;5033439;28;20007;-74
2023/03/17 12:32:57;;;;;;;;;;;;;;;20.61;30.80;96556.00;5038387;28;20245;-76
2023/03/17 12:35:26;;;;;;;;;;;;;;;20.62;30.77;96551.50;5050688;28;19974;-74
2023/03/17 12:37:52;;;;;;;;;;;;;;;20.58;30.42;96546.09;5053138;28;19916;-73
2023/03/17 12:40:19;;;;;;;;;;;;;;;20.71;29.77;96547.69;5069242;28;19962;-74
2023/03/17 12:42:45;;;;;;;;;;;;;;;20.74;30.40;96544.41;5069054;28;20015;-74
2023/03/17 12:45:14;;;;;;;;;;;;;;;20.88;29.80;96538.81;5051966;28;19922;-74
2023/03/17 12:47:51;;;;;;;;;;;;;;;20.74;31.47;96544.41;5069440;28;19921;-74